Time;durP1;ratioP1;P1;durP2;ratioP2;P2;SDS_P1;SDS_P2;PMS_P1;PMS_P2;Temp;Humidity;BMP_temperature;BMP_pressure;BME280_temperature;BME280_humidity;BME280_pressure;Samples;Min_cycle;Max_cycle;Signal;HPM_P1;HPM_P2
2022/04/02 00:00:31;;;;;;;4.13;1.90;;;1.40;99.90;;;;;;5063500;28;20047;-73
2022/04/02 00:02:57;;;;;;;4.38;2.08;;;1.40;99.90;;;;;;5051145;28;20122;-73
2022/04/02 00:05:27;;;;;;;5.22;2.20;;;1.40;99.90;;;;;;5029014;28;20045;-73
2022/04/02 00:07:53;;;;;;;3.53;2.00;;;1.40;99.90;;;;;;5027067;28;20049;-73
2022/04/02 00:10:19;;;;;;;4.47;2.03;;;1.50;99.90;;;;;;5043791;28;20048;-73
2022/04/02 00:12:45;;;;;;;4.35;1.92;;;1.30;99.90;;;;;;5059899;28;20079;-74
2022/04/02 00:15:11;;;;;;;3.70;2.28;;;1.30;99.90;;;;;;5043153;28;20049;-73
2022/04/02 00:17:37;;;;;;;4.25;2.05;;;1.30;99.90;;;;;;5043539;28;20098;-73
2022/04/02 00:20:04;;;;;;;3.80;1.73;;;1.30;99.90;;;;;;5067286;28;20044;-73
2022/04/02 00:22:30;;;;;;;3.65;1.73;;;1.30;99.90;;;;;;5046337;28;20104;-73
2022/04/02 00:24:56;;;;;;;3.38;1.70;;;1.20;99.90;;;;;;5046429;28;20123;-73
2022/04/02 00:27:22;;;;;;;2.60;1.65;;;1.30;99.90;;;;;;5035134;28;20543;-73
2022/04/02 00:29:49;;;;;;;6.53;2.85;;;1.30;99.90;;;;;;5046163;28;20043;-73
2022/04/02 00:32:14;;;;;;;2.75;1.52;;;1.30;99.90;;;;;;5038339;28;20044;-73
2022/04/02 00:34:40;;;;;;;4.60;1.80;;;1.50;99.90;;;;;;5062742;28;20048;-73
2022/04/02 00:37:06;;;;;;;4.20;2.17;;;1.30;99.90;;;;;;5045548;28;20052;-73
2022/04/02 00:39:32;;;;;;;3.75;1.98;;;1.30;99.90;;;;;;5062555;28;20048;-74
2022/04/02 00:41:58;;;;;;;4.18;1.63;;;1.20;99.90;;;;;;5037051;28;20887;-73
2022/04/02 00:44:26;;;;;;;2.15;1.48;;;1.20;99.90;;;;;;5033473;28;20037;-73
2022/04/02 00:46:52;;;;;;;3.08;1.77;;;1.20;99.90;;;;;;5061996;28;20052;-73
2022/04/02 00:49:18;;;;;;;5.15;1.90;;;1.20;99.90;;;;;;5050341;28;20045;-73
2022/04/02 00:51:46;;;;;;;2.75;1.77;;;1.10;99.90;;;;;;5062620;28;20570;-73
2022/04/02 00:54:16;;;;;;;3.67;1.85;;;1.30;99.90;;;;;;5052900;28;20041;-73
2022/04/02 00:56:43;;;;;;;3.67;1.85;;;1.10;99.90;;;;;;5092174;28;20060;-74
2022/04/02 00:59:10;;;;;;;3.25;1.70;;;1.40;99.90;;;;;;5076051;28;20056;-73
2022/04/02 01:01:37;;;;;;;3.38;1.98;;;1.00;99.90;;;;;;5060876;28;20495;-74
2022/04/02 01:04:04;;;;;;;3.80;2.00;;;1.00;99.90;;;;;;5062267;28;20071;-74
2022/04/02 01:06:31;;;;;;;3.38;1.95;;;1.00;99.90;;;;;;5041212;28;20412;-75
2022/04/02 01:08:58;;;;;;;4.35;2.22;;;1.00;99.90;;;;;;5062299;28;20040;-74
2022/04/02 01:11:34;;;;;;;3.70;1.98;;;1.00;99.90;;;;;;5044578;28;20062;-73
2022/04/02 01:14:00;;;;;;;3.72;1.88;;;1.00;99.90;;;;;;5042862;28;20119;-73
2022/04/02 01:16:27;;;;;;;4.50;1.98;;;1.00;99.90;;;;;;5029136;28;20079;-73
2022/04/02 01:18:52;;;;;;;4.95;2.03;;;1.10;99.90;;;;;;5060936;28;20119;-75
2022/04/02 01:21:19;;;;;;;4.25;2.10;;;1.00;99.90;;;;;;5044673;28;20137;-73
2022/04/02 01:23:44;;;;;;;3.65;1.92;;;1.00;99.90;;;;;;5061107;28;20127;-73
2022/04/02 01:26:10;;;;;;;3.78;1.95;;;1.00;99.90;;;;;;5040103;28;20571;-73
2022/04/02 01:28:36;;;;;;;3.33;1.80;;;0.90;99.90;;;;;;5069730;28;20080;-73
2022/04/02 01:31:06;;;;;;;4.50;2.08;;;0.90;99.90;;;;;;5040638;28;20047;-73
2022/04/02 01:33:34;;;;;;;5.78;2.03;;;0.90;99.90;;;;;;5060304;28;20048;-73
2022/04/02 01:36:01;;;;;;;4.80;2.38;;;1.20;99.90;;;;;;5060603;28;20636;-73
2022/04/02 01:38:28;;;;;;;4.38;1.85;;;0.90;99.90;;;;;;5061475;28;20040;-73
2022/04/02 01:40:54;;;;;;;6.18;2.78;;;1.00;99.90;;;;;;5044403;28;20041;-73
2022/04/02 01:43:20;;;;;;;4.47;2.53;;;0.90;99.90;;;;;;5053665;28;20045;-73
2022/04/02 01:45:45;;;;;;;4.22;2.00;;;0.90;99.90;;;;;;5061879;28;20059;-73
2022/04/02 01:48:11;;;;;;;3.25;1.70;;;0.80;99.90;;;;;;5047675;28;20045;-73
2022/04/02 01:50:37;;;;;;;4.82;1.70;;;1.10;99.90;;;;;;5042762;28;20033;-73
2022/04/02 01:53:03;;;;;;;3.75;2.10;;;0.80;99.90;;;;;;5040325;28;20091;-72
2022/04/02 01:55:28;;;;;;;5.90;2.03;;;0.80;99.90;;;;;;5060690;28;20055;-73
2022/04/02 01:57:54;;;;;;;3.28;1.70;;;0.80;99.90;;;;;;5043793;28;20048;-73
2022/04/02 02:00:21;;;;;;;4.35;1.80;;;0.80;99.90;;;;;;5027919;28;20055;-73
2022/04/02 02:02:47;;;;;;;3.78;1.98;;;0.80;99.90;;;;;;5042439;28;20048;-73
2022/04/02 02:05:13;;;;;;;2.30;1.40;;;0.80;99.90;;;;;;5076772;28;20101;-73
2022/04/02 02:07:39;;;;;;;4.28;1.85;;;0.90;99.90;;;;;;5044086;28;20045;-73
2022/04/02 02:10:06;;;;;;;3.97;1.67;;;1.70;99.90;;;;;;5043598;28;20143;-73
2022/04/02 02:12:33;;;;;;;3.78;2.10;;;0.80;99.90;;;;;;5077096;28;20048;-73
2022/04/02 02:14:58;;;;;;;5.10;2.17;;;0.80;99.90;;;;;;5042686;28;20052;-72
2022/04/02 02:17:24;;;;;;;6.03;2.30;;;0.70;99.90;;;;;;5039487;28;20048;-73
2022/04/02 02:19:50;;;;;;;4.05;2.00;;;1.00;99.90;;;;;;5043783;28;20045;-74
2022/04/02 02:22:15;;;;;;;4.60;2.13;;;0.70;99.90;;;;;;5044269;28;20056;-73
2022/04/02 02:24:42;;;;;;;5.50;2.00;;;0.70;99.90;;;;;;5060590;28;20074;-73
2022/04/02 02:27:08;;;;;;;3.95;1.77;;;0.70;99.90;;;;;;5050051;28;20087;-73
2022/04/02 02:29:34;;;;;;;4.97;2.03;;;0.70;99.90;;;;;;5040687;28;20102;-73
2022/04/02 02:31:59;;;;;;;3.35;1.70;;;0.70;99.90;;;;;;5076699;28;20045;-73
2022/04/02 02:37:09;;;;;;;5.03;1.83;;;0.80;99.90;;;;;;5070620;28;20104;-73
2022/04/02 02:39:35;;;;;;;3.20;1.80;;;0.60;99.90;;;;;;5060067;28;20129;-73
2022/04/02 02:42:01;;;;;;;4.63;1.70;;;0.60;99.90;;;;;;5076430;28;20150;-73
2022/04/02 02:44:26;;;;;;;3.05;2.10;;;0.60;99.90;;;;;;5029662;28;20069;-73
2022/04/02 02:46:52;;;;;;;3.15;1.75;;;0.60;99.90;;;;;;5043369;28;20052;-73
2022/04/02 02:49:18;;;;;;;4.60;2.42;;;0.60;99.90;;;;;;5059301;28;20033;-73
2022/04/02 02:51:43;;;;;;;2.88;1.60;;;0.60;99.90;;;;;;5044051;28;20045;-75
2022/04/02 02:54:09;;;;;;;3.88;2.40;;;0.70;99.90;;;;;;5055529;28;20052;-73
2022/04/02 02:56:35;;;;;;;3.97;2.00;;;1.00;99.90;;;;;;5047439;28;20044;-73
2022/04/02 02:59:00;;;;;;;5.65;2.85;;;0.70;99.90;;;;;;5043474;28;20040;-73
2022/04/02 03:01:26;;;;;;;5.75;1.67;;;0.70;99.90;;;;;;5042850;28;20041;-73
2022/04/02 03:03:52;;;;;;;4.90;1.83;;;0.70;99.90;;;;;;5028510;28;20061;-73
2022/04/02 03:06:18;;;;;;;3.80;1.73;;;0.70;99.90;;;;;;5045753;28;20082;-73
2022/04/02 03:08:43;;;;;;;3.58;2.00;;;0.70;99.90;;;;;;5043716;28;20045;-73
2022/04/02 03:11:10;;;;;;;4.10;1.98;;;0.60;99.90;;;;;;5042991;28;20504;-72
2022/04/02 03:13:38;;;;;;;4.20;2.10;;;0.60;99.90;;;;;;5059706;28;20136;-73
2022/04/02 03:16:05;;;;;;;3.67;2.13;;;0.60;99.90;;;;;;5049940;28;20051;-73
2022/04/02 03:18:30;;;;;;;4.65;1.85;;;0.60;99.90;;;;;;5051102;28;20462;-73
2022/04/02 03:20:56;;;;;;;5.13;2.28;;;0.90;99.90;;;;;;5060104;28;20045;-73
2022/04/02 03:23:22;;;;;;;3.88;1.92;;;0.90;99.90;;;;;;5059588;28;20075;-73
2022/04/02 03:25:47;;;;;;;3.33;1.92;;;0.60;99.90;;;;;;5038451;28;20048;-73
2022/04/02 03:28:14;;;;;;;3.30;1.88;;;0.60;99.90;;;;;;5045361;28;20412;-73
2022/04/02 03:30:39;;;;;;;4.13;1.80;;;0.60;99.90;;;;;;5034592;28;20045;-73
2022/04/02 03:33:05;;;;;;;4.97;2.78;;;0.60;99.90;;;;;;5052442;28;20089;-73
2022/04/02 03:35:31;;;;;;;3.58;1.90;;;0.60;99.90;;;;;;5039126;28;20048;-73
2022/04/02 03:37:57;;;;;;;3.88;1.60;;;0.70;99.90;;;;;;5059635;28;20040;-73
2022/04/02 03:40:24;;;;;;;4.32;2.63;;;0.60;99.90;;;;;;5042986;28;20040;-73
2022/04/02 03:42:51;;;;;;;3.50;2.00;;;0.60;99.90;;;;;;5056345;28;20049;-73
2022/04/02 03:45:19;;;;;;;10.52;3.75;;;0.60;99.90;;;;;;5060548;28;20045;-75
2022/04/02 03:47:45;;;;;;;5.10;1.98;;;0.80;99.90;;;;;;5062665;28;20045;-73
2022/04/02 03:50:12;;;;;;;3.95;2.30;;;0.60;99.90;;;;;;5046563;28;20067;-73
2022/04/02 03:52:37;;;;;;;4.30;2.97;;;0.50;99.90;;;;;;5079722;28;20142;-73
2022/04/02 03:55:05;;;;;;;4.60;1.92;;;0.60;99.90;;;;;;5046506;28;20512;-73
2022/04/02 03:57:31;;;;;;;5.82;2.70;;;0.50;99.90;;;;;;5062859;28;20041;-73
2022/04/02 03:59:57;;;;;;;5.13;2.35;;;0.60;99.90;;;;;;5063499;28;20082;-73
2022/04/02 04:02:23;;;;;;;3.88;2.10;;;0.50;99.90;;;;;;5045965;28;20437;-73
2022/04/02 04:04:49;;;;;;;22.80;4.82;;;0.30;99.90;;;;;;5036025;28;20040;-73
2022/04/02 04:07:15;;;;;;;3.28;1.85;;;0.40;99.90;;;;;;5062947;28;20074;-73
2022/04/02 04:09:41;;;;;;;4.70;2.10;;;0.40;99.90;;;;;;5062502;28;20036;-73
2022/04/02 04:12:08;;;;;;;4.43;2.22;;;0.40;99.90;;;;;;5070039;28;20060;-73
2022/04/02 04:14:34;;;;;;;5.47;1.90;;;0.40;99.90;;;;;;5028961;28;20255;-73
2022/04/02 04:16:59;;;;;;;3.80;2.35;;;0.50;99.90;;;;;;5028567;28;20086;-73
2022/04/02 04:19:26;;;;;;;3.47;2.00;;;0.40;99.90;;;;;;5044910;28;20051;-73
2022/04/02 04:21:53;;;;;;;5.47;1.98;;;0.30;99.90;;;;;;5062789;28;20072;-73
2022/04/02 04:24:18;;;;;;;4.88;2.22;;;0.50;99.90;;;;;;5063147;28;20045;-73
2022/04/02 04:26:44;;;;;;;5.07;2.20;;;0.30;99.90;;;;;;5028667;28;20428;-73
2022/04/02 04:29:10;;;;;;;3.90;2.30;;;0.40;99.90;;;;;;5060102;28;20590;-73
2022/04/02 04:31:37;;;;;;;4.45;2.35;;;0.40;99.90;;;;;;5061433;28;20041;-73
2022/04/02 04:34:03;;;;;;;4.32;2.20;;;0.40;99.90;;;;;;5062406;28;20143;-73
2022/04/02 04:36:29;;;;;;;5.85;2.38;;;0.40;99.90;;;;;;5059834;28;20076;-73
2022/04/02 04:38:57;;;;;;;4.00;2.00;;;0.60;99.90;;;;;;5054824;28;20040;-72
2022/04/02 04:41:23;;;;;;;5.20;2.33;;;0.30;99.90;;;;;;5046004;28;20123;-73
2022/04/02 04:43:49;;;;;;;4.88;2.60;;;0.40;99.90;;;;;;5050519;28;20048;-73
2022/04/02 04:46:16;;;;;;;3.03;1.85;;;0.30;99.90;;;;;;5024984;28;20420;-73
2022/04/02 04:48:42;;;;;;;4.95;2.58;;;0.40;99.90;;;;;;5041685;28;20052;-73
2022/04/02 04:51:09;;;;;;;5.43;2.55;;;0.40;99.90;;;;;;5060948;28;20033;-73
2022/04/02 04:53:36;;;;;;;5.38;2.00;;;0.40;99.90;;;;;;5061741;28;20040;-73
2022/04/02 04:56:02;;;;;;;5.45;2.10;;;0.30;99.90;;;;;;5060525;28;20036;-73
2022/04/02 04:58:27;;;;;;;6.07;2.15;;;0.30;99.90;;;;;;5079886;28;20545;-73
2022/04/02 05:00:56;;;;;;;4.80;2.60;;;0.50;99.90;;;;;;5061814;28;20076;-73
2022/04/02 05:03:22;;;;;;;4.55;2.10;;;0.40;99.90;;;;;;5059490;28;20036;-73
2022/04/02 05:05:48;;;;;;;4.93;2.60;;;0.40;99.90;;;;;;5078288;28;20048;-74
2022/04/02 05:08:14;;;;;;;4.50;2.28;;;0.40;99.90;;;;;;5044673;28;20079;-73
2022/04/02 05:10:41;;;;;;;8.15;2.60;;;0.40;99.90;;;;;;5044524;28;20542;-73
2022/04/02 05:13:14;;;;;;;2.83;2.00;;;0.40;99.90;;;;;;5078745;28;20060;-73
2022/04/02 05:15:44;;;;;;;3.42;1.80;;;0.70;99.90;;;;;;5055043;28;20064;-73
2022/04/02 05:18:11;;;;;;;4.88;2.60;;;0.50;99.90;;;;;;5042426;28;20082;-73
2022/04/02 05:20:38;;;;;;;4.68;2.65;;;0.50;99.90;;;;;;5054165;28;20617;-73
2022/04/02 05:23:05;;;;;;;6.07;2.55;;;0.50;99.90;;;;;;5060829;28;20515;-73
2022/04/02 05:25:33;;;;;;;3.85;2.35;;;0.50;99.90;;;;;;5044998;28;20064;-73
2022/04/02 05:27:59;;;;;;;4.18;2.30;;;0.50;99.90;;;;;;5060809;28;20048;-73
2022/04/02 05:30:29;;;;;;;4.85;2.00;;;0.50;99.90;;;;;;5045093;28;20029;-73
2022/04/02 05:32:55;;;;;;;4.50;2.53;;;0.90;99.90;;;;;;5045042;28;20045;-73
2022/04/02 05:35:22;;;;;;;4.10;2.15;;;0.50;99.90;;;;;;5044472;28;20512;-73
2022/04/02 05:37:49;;;;;;;5.28;2.50;;;0.50;99.90;;;;;;5059030;28;20046;-73
2022/04/02 05:40:15;;;;;;;3.65;2.22;;;0.50;99.90;;;;;;5034034;28;20048;-73
2022/04/02 05:42:41;;;;;;;4.13;2.58;;;0.50;99.90;;;;;;5055626;28;20092;-73
2022/04/02 05:45:08;;;;;;;4.82;2.60;;;0.60;99.90;;;;;;5053549;28;20070;-73
2022/04/02 05:47:45;;;;;;;4.65;2.20;;;0.60;99.90;;;;;;5060126;28;20056;-73
2022/04/02 05:50:12;;;;;;;6.25;2.50;;;0.20;99.90;;;;;;5060704;28;20044;-73
2022/04/02 05:52:39;;;;;;;4.60;2.28;;;0.60;99.90;;;;;;5060659;28;20044;-73
2022/04/02 05:55:10;;;;;;;6.43;2.65;;;0.70;99.90;;;;;;5036037;28;20654;-73
2022/04/02 05:57:40;;;;;;;3.95;2.20;;;0.70;99.90;;;;;;5056419;28;20066;-73
2022/04/02 06:00:09;;;;;;;6.45;2.80;;;0.70;99.90;;;;;;5061180;28;20547;-73
2022/04/02 06:02:36;;;;;;;4.22;2.75;;;0.70;99.90;;;;;;5044002;28;20059;-73
2022/04/02 06:05:02;;;;;;;6.13;2.60;;;0.70;99.90;;;;;;5060181;28;20040;-73
2022/04/02 06:07:27;;;;;;;3.92;2.15;;;0.80;99.90;;;;;;5056809;28;20037;-73
2022/04/02 06:09:53;;;;;;;5.30;3.28;;;0.80;99.90;;;;;;5056750;28;20051;-73
2022/04/02 06:12:19;;;;;;;4.43;2.60;;;0.90;99.90;;;;;;5037197;28;20062;-73
2022/04/02 06:14:45;;;;;;;8.88;2.60;;;0.90;99.90;;;;;;5060258;28;20086;-73
2022/04/02 06:17:10;;;;;;;9.20;3.00;;;0.90;99.90;;;;;;5035531;28;20055;-73
2022/04/02 06:19:36;;;;;;;6.75;2.60;;;1.00;99.90;;;;;;5034946;28;20033;-73
2022/04/02 06:22:06;;;;;;;5.93;2.83;;;1.20;99.90;;;;;;5050875;28;20139;-73
2022/04/02 06:24:35;;;;;;;5.57;2.83;;;1.00;99.90;;;;;;5040901;28;20037;-72
2022/04/02 06:27:01;;;;;;;5.43;2.53;;;1.30;99.90;;;;;;5036138;28;20040;-72
2022/04/02 06:29:27;;;;;;;4.43;2.63;;;1.10;99.90;;;;;;5060409;28;20055;-72
2022/04/02 06:31:53;;;;;;;6.05;2.50;;;1.30;99.90;;;;;;5060726;28;20041;-73
2022/04/02 06:34:19;;;;;;;5.38;2.45;;;1.80;99.90;;;;;;5040307;28;20098;-73
2022/04/02 06:36:44;;;;;;;5.03;2.15;;;1.10;99.90;;;;;;5047438;28;20052;-73
2022/04/02 06:39:12;;;;;;;3.75;2.20;;;1.20;99.90;;;;;;5043931;28;20056;-73
2022/04/02 06:41:38;;;;;;;7.50;3.38;;;1.20;99.90;;;;;;5078036;28;20076;-73
2022/04/02 06:44:07;;;;;;;5.63;2.97;;;1.30;99.90;;;;;;5033843;28;20044;-73
2022/04/02 06:46:33;;;;;;;4.75;2.20;;;1.30;99.90;;;;;;5077470;28;20114;-73
2022/04/02 06:48:58;;;;;;;6.63;2.83;;;1.50;99.90;;;;;;5042790;28;20504;-73
2022/04/02 06:51:26;;;;;;;5.53;2.63;;;1.40;99.90;;;;;;5078052;28;20045;-73
2022/04/02 06:53:51;;;;;;;4.50;2.60;;;1.50;99.90;;;;;;5059627;28;20049;-72
2022/04/02 06:56:18;;;;;;;4.10;2.60;;;1.50;99.90;;;;;;5059760;28;20048;-72
2022/04/02 06:58:44;;;;;;;4.40;2.22;;;1.50;99.90;;;;;;5059741;28;20045;-72
2022/04/02 07:01:10;;;;;;;5.30;2.78;;;1.60;99.90;;;;;;5034753;28;20092;-73
2022/04/02 07:03:37;;;;;;;4.45;2.22;;;1.60;99.90;;;;;;5053455;28;20056;-73
2022/04/02 07:06:03;;;;;;;6.00;2.72;;;1.70;99.90;;;;;;5085777;28;20154;-73
2022/04/02 07:08:29;;;;;;;4.28;2.45;;;1.80;99.90;;;;;;5043781;28;20084;-73
2022/04/02 07:10:55;;;;;;;6.35;3.05;;;2.10;99.90;;;;;;5076197;28;20055;-73
2022/04/02 07:13:21;;;;;;;4.68;2.92;;;2.30;99.90;;;;;;5059730;28;20138;-73
2022/04/02 07:15:46;;;;;;;6.70;2.97;;;2.10;99.90;;;;;;5036040;28;20041;-73
2022/04/02 07:18:12;;;;;;;6.05;3.03;;;2.20;99.90;;;;;;5026180;28;20094;-73
2022/04/02 07:20:39;;;;;;;6.97;2.85;;;2.50;99.90;;;;;;5044640;28;20100;-74
2022/04/02 07:23:09;;;;;;;4.80;3.08;;;2.40;99.90;;;;;;5041466;28;20139;-74
2022/04/02 07:25:39;;;;;;;6.25;2.80;;;2.50;99.90;;;;;;5068520;28;20080;-74
2022/04/02 07:28:06;;;;;;;6.80;2.97;;;2.60;99.90;;;;;;5046537;28;20122;-73
2022/04/02 07:30:33;;;;;;;5.85;2.97;;;2.70;99.90;;;;;;5067507;28;20053;-73
2022/04/02 07:33:00;;;;;;;5.45;2.85;;;2.80;99.90;;;;;;5076951;28;20044;-73
2022/04/02 07:35:33;;;;;;;4.63;2.70;;;2.90;99.90;;;;;;5059559;28;20052;-74
2022/04/02 07:38:18;;;;;;;5.35;2.55;;;3.00;99.90;;;;;;5050329;28;20972;-73
2022/04/02 07:41:10;;;;;;;3.47;2.30;;;3.10;99.90;;;;;;5058002;28;20118;-73
2022/04/02 07:43:54;;;;;;;5.95;2.50;;;3.10;99.90;;;;;;5052258;28;20045;-74
2022/04/02 07:46:32;;;;;;;5.32;2.25;;;3.20;99.90;;;;;;5042783;28;20060;-73
2022/04/02 07:48:58;;;;;;;4.47;2.90;;;3.30;99.90;;;;;;5075975;28;20052;-73
2022/04/02 07:51:30;;;;;;;5.85;2.63;;;3.40;99.90;;;;;;5076652;28;20044;-73
2022/04/02 07:54:01;;;;;;;6.00;3.28;;;3.60;99.90;;;;;;5062937;28;20045;-74
2022/04/02 07:56:36;;;;;;;4.43;2.70;;;3.60;99.90;;;;;;5053147;28;20083;-74
2022/04/02 07:59:11;;;;;;;4.43;2.50;;;3.70;99.90;;;;;;5050904;28;20104;-75
2022/04/02 08:01:36;;;;;;;6.80;3.28;;;3.90;99.90;;;;;;5059273;28;20037;-75
2022/04/02 08:04:06;;;;;;;4.63;2.70;;;4.10;99.90;;;;;;5056278;28;20085;-74
2022/04/02 08:06:34;;;;;;;7.18;2.92;;;4.20;99.90;;;;;;5080075;28;20059;-73
2022/04/02 08:09:00;;;;;;;6.68;2.58;;;4.30;99.90;;;;;;5048009;28;20056;-75
2022/04/02 08:11:27;;;;;;;3.50;2.40;;;4.40;99.90;;;;;;5045727;28;20053;-76
2022/04/02 08:13:54;;;;;;;5.20;2.22;;;4.60;99.90;;;;;;5074405;28;20045;-72
2022/04/02 08:16:20;;;;;;;5.07;2.35;;;4.70;99.90;;;;;;5064690;28;20096;-74
2022/04/02 08:18:47;;;;;;;4.47;2.35;;;4.80;99.90;;;;;;5040445;28;20044;-74
2022/04/02 08:21:14;;;;;;;3.78;2.30;;;5.00;99.90;;;;;;5044846;28;20493;-74
2022/04/02 08:23:39;;;;;;;4.93;2.20;;;5.10;99.90;;;;;;5055518;28;20123;-75
2022/04/02 08:26:32;;;;;;;6.07;2.63;;;5.20;99.90;;;;;;5039448;28;20046;-74
2022/04/02 08:29:04;;;;;;;3.65;1.92;;;5.30;99.90;;;;;;5076202;28;20056;-74
2022/04/02 08:32:10;;;;;;;3.92;2.03;;;5.40;99.90;;;;;;5057573;28;20114;-75
2022/04/02 08:34:49;;;;;;;3.88;1.98;;;5.60;99.90;;;;;;4999277;28;20479;-77
2022/04/02 08:37:24;;;;;;;3.13;1.75;;;5.70;99.90;;;;;;5042486;28;20431;-73
2022/04/02 08:40:02;;;;;;;2.97;1.95;;;5.90;99.90;;;;;;5038064;28;20056;-77
2022/04/02 08:42:55;;;;;;;4.30;2.25;;;6.00;99.90;;;;;;5069885;28;20052;-75
2022/04/02 08:45:32;;;;;;;3.90;2.08;;;6.10;99.90;;;;;;5057417;28;20045;-76
2022/04/02 08:48:16;;;;;;;3.58;1.88;;;6.20;99.90;;;;;;5074706;28;20468;-73
2022/04/02 08:50:46;;;;;;;3.08;1.73;;;6.40;99.90;;;;;;5042025;28;20456;-75
2022/04/02 08:53:32;;;;;;;3.35;1.95;;;6.60;99.90;;;;;;5041165;28;20548;-75
2022/04/02 08:56:02;;;;;;;4.57;2.28;;;6.70;99.90;;;;;;5042139;28;20075;-75
2022/04/02 08:59:19;;;;;;;2.85;1.70;;;6.90;99.90;;;;;;5074983;28;20126;-73
2022/04/02 09:02:06;;;;;;;2.80;1.55;;;7.00;99.90;;;;;;5040772;28;20060;-74
2022/04/02 09:04:54;;;;;;;4.00;2.20;;;7.10;99.90;;;;;;5041552;28;20049;-74
2022/04/02 09:07:44;;;;;;;4.47;2.10;;;7.20;99.90;;;;;;5041562;28;20131;-74
2022/04/02 09:10:48;;;;;;;2.40;1.73;;;7.40;99.90;;;;;;5074246;28;20063;-73
2022/04/02 09:13:32;;;;;;;4.65;1.98;;;7.50;99.90;;;;;;5023321;28;20486;-73
2022/04/02 09:16:06;;;;;;;3.05;1.77;;;7.50;99.90;;;;;;5072866;28;20136;-73
2022/04/02 09:19:01;;;;;;;2.97;1.73;;;7.30;99.90;;;;;;5041091;28;20104;-73
2022/04/02 09:21:31;;;;;;;4.20;1.90;;;7.30;99.90;;;;;;5041453;28;20055;-74
2022/04/02 09:24:04;;;;;;;4.20;2.10;;;7.20;99.90;;;;;;5041262;28;20060;-73
2022/04/02 09:26:55;;;;;;;3.78;2.25;;;7.40;99.90;;;;;;5040815;28;20045;-73
2022/04/02 09:29:29;;;;;;;3.60;1.88;;;7.50;99.90;;;;;;5041160;28;20134;-74
2022/04/02 09:32:10;;;;;;;3.40;1.88;;;7.60;99.90;;;;;;5024290;28;20049;-73
2022/04/02 09:34:51;;;;;;;2.22;1.50;;;7.70;99.90;;;;;;5041418;28;20052;-74
2022/04/02 09:37:26;;;;;;;2.17;1.50;;;7.70;99.90;;;;;;5041222;28;20386;-73
2022/04/02 09:40:06;;;;;;;3.88;1.70;;;7.60;99.90;;;;;;5040919;28;20067;-75
2022/04/02 09:42:43;;;;;;;4.55;1.98;;;7.90;99.90;;;;;;5040450;28;20048;-73
2022/04/02 09:45:14;;;;;;;3.67;1.65;;;8.10;99.90;;;;;;5024537;28;20045;-73
2022/04/02 09:47:49;;;;;;;3.25;2.05;;;8.10;99.90;;;;;;5040362;28;20075;-73
2022/04/02 09:50:22;;;;;;;3.30;1.40;;;7.80;99.90;;;;;;5057032;28;20049;-75
2022/04/02 09:53:06;;;;;;;4.53;1.55;;;7.50;99.90;;;;;;5040185;28;20053;-73
2022/04/02 09:55:38;;;;;;;4.05;1.60;;;7.00;99.90;;;;;;5041052;28;20059;-73
2022/04/02 09:58:22;;;;;;;5.35;1.33;;;6.50;99.90;;;;;;5040381;28;20056;-73
2022/04/02 10:01:04;;;;;;;4.18;1.70;;;6.20;99.90;;;;;;5040382;28;20045;-74
2022/04/02 10:03:44;;;;;;;4.25;1.30;;;5.80;99.90;;;;;;5057101;28;20052;-73
2022/04/02 10:06:24;;;;;;;2.92;1.40;;;5.60;99.90;;;;;;5056592;28;20099;-73
2022/04/02 10:09:04;;;;;;;3.45;1.30;;;5.30;99.90;;;;;;5040261;28;20106;-73
2022/04/02 10:11:31;;;;;;;3.78;1.38;;;5.20;99.90;;;;;;5040722;28;20126;-73
2022/04/02 10:13:59;;;;;;;2.03;1.10;;;5.10;99.90;;;;;;5023006;28;20041;-73
2022/04/02 10:16:25;;;;;;;3.35;1.30;;;5.00;99.90;;;;;;5021452;28;20048;-73
2022/04/02 10:18:56;;;;;;;3.20;1.42;;;5.10;99.90;;;;;;5039662;28;20052;-74
2022/04/02 10:21:23;;;;;;;3.28;1.52;;;5.10;99.90;;;;;;5040582;28;20512;-73
2022/04/02 10:23:54;;;;;;;4.10;1.23;;;5.10;99.90;;;;;;5023960;28;20127;-73
2022/04/02 10:26:24;;;;;;;2.60;1.20;;;5.20;99.90;;;;;;5040103;28;20113;-73
2022/04/02 10:28:56;;;;;;;2.80;1.17;;;5.20;99.90;;;;;;5040047;28;20087;-73
2022/04/02 10:31:34;;;;;;;3.10;1.20;;;5.30;99.90;;;;;;5039778;28;20052;-73
2022/04/02 10:34:11;;;;;;;3.03;1.33;;;5.40;99.90;;;;;;5040276;28;20041;-73
2022/04/02 10:36:48;;;;;;;2.58;1.00;;;5.60;99.90;;;;;;5040069;28;20112;-73
2022/04/02 10:39:16;;;;;;;4.20;1.50;;;5.80;99.90;;;;;;5039973;28;20436;-73
2022/04/02 10:41:44;;;;;;;4.15;1.48;;;6.00;99.90;;;;;;5040179;28;20048;-74
2022/04/02 10:44:20;;;;;;;3.97;1.52;;;6.20;99.90;;;;;;5039298;28;20064;-74
2022/04/02 10:46:49;;;;;;;2.70;1.48;;;6.70;99.90;;;;;;5039817;28;20053;-75
2022/04/02 10:49:26;;;;;;;4.65;1.65;;;7.30;99.90;;;;;;5039873;28;20065;-74
2022/04/02 10:51:54;;;;;;;2.50;1.35;;;7.70;99.90;;;;;;5039867;28;20048;-75
2022/04/02 10:54:28;;;;;;;2.85;1.30;;;7.80;99.90;;;;;;5056717;28;20052;-74
2022/04/02 10:56:57;;;;;;;2.30;1.20;;;7.60;99.90;;;;;;5039404;28;20053;-75
2022/04/02 10:59:30;;;;;;;4.18;1.30;;;7.40;99.90;;;;;;5056491;28;20049;-74
2022/04/02 11:01:59;;;;;;;2.55;1.38;;;7.20;99.90;;;;;;5040568;28;20595;-73
2022/04/02 11:04:41;;;;;;;2.08;1.17;;;7.00;99.90;;;;;;5039502;28;20064;-75
2022/04/02 11:07:06;;;;;;;2.85;1.23;;;6.90;99.90;;;;;;5035758;28;20056;-74
2022/04/02 11:09:39;;;;;;;1.67;0.95;;;7.00;99.90;;;;;;5018978;28;20053;-74
2022/04/02 11:12:29;;;;;;;1.92;1.02;;;7.00;99.90;;;;;;5035971;28;20061;-74
2022/04/02 11:15:07;;;;;;;2.67;0.93;;;7.10;99.90;;;;;;5033262;28;20063;-74
2022/04/02 11:17:35;;;;;;;1.60;0.80;;;7.10;99.90;;;;;;5055535;28;20049;-75
2022/04/02 11:20:09;;;;;;;1.90;1.10;;;7.10;99.90;;;;;;5039364;28;20102;-75
2022/04/02 11:22:49;;;;;;;2.22;1.30;;;7.10;99.90;;;;;;5024246;28;20556;-74
2022/04/02 11:25:34;;;;;;;1.90;1.10;;;7.10;99.90;;;;;;5039472;28;20051;-73
2022/04/02 11:28:41;;;;;;;2.72;1.10;;;7.00;99.90;;;;;;5039404;28;20049;-73
2022/04/02 11:31:08;;;;;;;2.65;1.35;;;7.00;99.90;;;;;;5034236;28;20438;-73
2022/04/02 11:33:50;;;;;;;2.30;1.20;;;6.80;99.90;;;;;;5022902;28;20060;-73
2022/04/02 11:36:16;;;;;;;3.15;1.58;;;6.70;99.90;;;;;;5038983;28;20560;-74
2022/04/02 11:38:58;;;;;;;3.35;1.17;;;6.60;99.90;;;;;;5023073;28;20076;-73
2022/04/02 11:41:30;;;;;;;3.45;1.38;;;6.70;99.90;;;;;;5039779;28;20366;-73
2022/04/02 11:44:11;;;;;;;2.40;1.05;;;6.70;99.90;;;;;;5038766;28;20049;-73
2022/04/02 11:47:02;;;;;;;5.40;2.60;;;6.70;99.90;;;;;;5026178;28;20048;-74
2022/04/02 11:49:43;;;;;;;7.97;4.22;;;7.00;99.90;;;;;;5035992;28;20042;-73
2022/04/02 11:52:14;;;;;;;2.08;1.02;;;7.20;99.90;;;;;;5044599;28;20087;-73
2022/04/02 11:54:57;;;;;;;3.28;1.25;;;7.20;99.90;;;;;;5022170;28;20091;-73
2022/04/02 11:57:22;;;;;;;3.05;1.45;;;7.10;99.90;;;;;;5038476;28;20041;-73
2022/04/02 11:59:52;;;;;;;3.15;1.10;;;6.90;99.90;;;;;;5039293;28;20064;-72
2022/04/02 12:02:36;;;;;;;5.03;1.60;;;6.60;99.90;;;;;;5039119;28;20049;-74
2022/04/02 12:05:05;;;;;;;2.55;1.38;;;6.30;99.90;;;;;;5039090;28;20066;-73
2022/04/02 12:07:50;;;;;;;2.60;1.38;;;6.10;99.90;;;;;;5042565;28;20063;-74
2022/04/02 12:10:25;;;;;;;2.80;1.60;;;5.90;99.90;;;;;;5058624;28;20175;-73
2022/04/02 12:12:53;;;;;;;2.78;0.90;;;5.70;99.90;;;;;;5042358;28;20463;-74
2022/04/02 12:15:20;;;;;;;2.60;1.70;;;5.70;99.90;;;;;;5042140;28;20465;-73
2022/04/02 12:17:48;;;;;;;1.98;1.00;;;5.60;99.90;;;;;;5041503;28;20091;-74
2022/04/02 12:20:38;;;;;;;2.58;1.10;;;5.60;99.90;;;;;;5040874;28;20909;-75
2022/04/02 12:23:18;;;;;;;2.90;1.60;;;5.60;99.90;;;;;;5041503;28;20067;-73
2022/04/02 12:25:55;;;;;;;2.78;1.40;;;5.70;99.90;;;;;;5025782;28;20200;-73
2022/04/02 12:28:22;;;;;;;2.47;1.20;;;5.80;99.90;;;;;;5042332;28;20155;-73
2022/04/02 12:30:51;;;;;;;2.88;1.38;;;5.90;99.90;;;;;;5041342;28;20044;-73
2022/04/02 12:33:24;;;;;;;3.78;1.60;;;6.00;99.90;;;;;;5058812;28;20055;-73
2022/04/02 12:36:08;;;;;;;4.25;1.45;;;6.10;99.90;;;;;;5041844;28;20484;-74
2022/04/02 12:38:39;;;;;;;3.63;1.33;;;6.10;99.90;;;;;;5058786;28;20079;-73
2022/04/02 12:41:17;;;;;;;4.07;1.42;;;6.20;99.90;;;;;;5042261;28;20144;-72
2022/04/02 12:43:47;;;;;;;2.60;1.50;;;6.20;99.90;;;;;;5059736;28;20041;-73
2022/04/02 12:46:27;;;;;;;4.82;1.30;;;6.50;99.90;;;;;;5041082;28;20048;-73
2022/04/02 12:48:53;;;;;;;3.08;1.23;;;6.70;99.90;;;;;;5059598;28;20045;-73
2022/04/02 12:51:19;;;;;;;2.88;1.10;;;6.80;99.90;;;;;;5042288;28;20076;-75
2022/04/02 12:53:47;;;;;;;3.22;1.10;;;6.70;99.90;;;;;;5041444;28;20412;-74
2022/04/02 12:56:18;;;;;;;3.53;1.10;;;6.60;99.90;;;;;;5042054;28;20441;-73
2022/04/02 12:58:47;;;;;;;3.38;1.30;;;6.40;99.90;;;;;;5058242;28;20088;-73
2022/04/02 13:01:25;;;;;;;3.05;1.10;;;6.40;99.90;;;;;;5041132;28;20084;-73
2022/04/02 13:04:08;;;;;;;1.80;0.90;;;6.30;99.90;;;;;;5058880;28;20117;-73
2022/04/02 13:06:39;;;;;;;3.08;1.38;;;6.20;99.90;;;;;;5041361;28;20044;-73
2022/04/02 13:09:12;;;;;;;4.55;1.40;;;6.20;99.90;;;;;;5058156;28;20095;-73
2022/04/02 13:11:52;;;;;;;2.25;1.17;;;6.20;99.90;;;;;;5041530;28;20257;-74
2022/04/02 13:14:33;;;;;;;2.30;1.10;;;6.20;99.90;;;;;;5040460;28;20059;-73
2022/04/02 13:17:20;;;;;;;2.65;1.25;;;6.30;99.90;;;;;;5040180;28;20048;-73